Time;durP1;ratioP1;P1;durP2;ratioP2;P2;SDS_P1;SDS_P2;PMS_P1;PMS_P2;Temp;Humidity;BMP_temperature;BMP_pressure;BME280_temperature;BME280_humidity;BME280_pressure;Samples;Min_cycle;Max_cycle;Signal;HPM_P1;HPM_P2
2022/03/08 00:00:06;;;;;;;18.92;13.75;;;;;;;1.20;nan;99944.53;4924525;29;20201;-73
2022/03/08 00:02:37;;;;;;;21.30;16.40;;;;;;;1.20;nan;99946.25;4927806;29;20989;-73
2022/03/08 00:05:02;;;;;;;18.47;15.53;;;;;;;1.18;nan;99943.69;4927843;29;20236;-73
2022/03/08 00:07:28;;;;;;;19.40;13.10;;;;;;;1.16;nan;99937.72;4928136;29;20296;-73
2022/03/08 00:09:55;;;;;;;18.80;13.40;;;;;;;1.16;nan;99936.84;4928264;29;20201;-73
2022/03/08 00:12:21;;;;;;;19.65;13.27;;;;;;;1.17;nan;99938.56;4926256;29;20209;-73
2022/03/08 00:14:46;;;;;;;11.67;9.70;;;;;;;1.14;nan;99934.31;4928959;29;20304;-73
2022/03/08 00:17:12;;;;;;;19.50;13.40;;;;;;;1.14;nan;99934.31;4930063;29;20424;-73
2022/03/08 00:19:37;;;;;;;16.63;12.37;;;;;;;1.13;nan;99937.75;4931405;29;20264;-73
2022/03/08 00:22:03;;;;;;;23.97;13.50;;;;;;;1.13;nan;99931.72;4927426;29;20213;-73
2022/03/08 00:24:28;;;;;;;17.10;14.00;;;;;;;1.12;nan;99927.47;4931848;29;20726;-73
2022/03/08 00:26:54;;;;;;;19.53;14.40;;;;;;;1.10;nan;99930.91;4929860;29;20240;-73
2022/03/08 00:29:19;;;;;;;20.97;14.27;;;;;;;1.10;nan;99932.66;4908307;29;20218;-73
2022/03/08 00:31:44;;;;;;;23.25;16.48;;;;;;;1.09;nan;99926.63;4926341;29;20489;-73
2022/03/08 00:34:10;;;;;;;17.90;13.43;;;;;;;1.07;nan;99928.38;4911487;29;20257;-73
2022/03/08 00:36:36;;;;;;;16.87;12.20;;;;;;;1.07;nan;99937.88;4908291;29;20202;-73
2022/03/08 00:39:03;;;;;;;24.47;13.83;;;;;;;1.05;nan;99931.88;4905585;29;20221;-73
2022/03/08 00:41:28;;;;;;;24.25;15.90;;;;;;;1.04;nan;99936.22;4929508;29;20605;-73
2022/03/08 00:43:53;;;;;;;23.37;14.13;;;;;;;1.03;nan;99928.50;4927625;29;20288;-73
2022/03/08 00:46:20;;;;;;;22.23;13.40;;;;;;;1.01;nan;99928.50;4929868;29;20206;-73
2022/03/08 00:48:45;;;;;;;20.07;14.10;;;;;;;0.99;nan;99925.09;4926638;29;20357;-73
2022/03/08 00:51:11;;;;;;;26.70;14.33;;;;;;;0.99;nan;99924.25;4927016;29;20201;-73
2022/03/08 00:53:37;;;;;;;21.42;14.43;;;;;;;0.96;nan;99925.16;4928171;29;20209;-73
2022/03/08 00:56:03;;;;;;;21.60;14.50;;;;;;;0.93;nan;99917.47;4915120;29;20233;-73
2022/03/08 00:58:29;;;;;;;17.73;13.48;;;;;;;0.88;nan;99912.38;4913752;29;20470;-73
2022/03/08 01:00:55;;;;;;;27.97;15.10;;;;;;;0.81;nan;99921.16;4929420;29;20200;-73
2022/03/08 01:03:20;;;;;;;18.30;12.63;;;;;;;0.73;nan;99912.69;4915527;29;20784;-73
2022/03/08 01:05:46;;;;;;;26.83;14.30;;;;;;;0.65;nan;99914.56;4932196;29;20749;-73
2022/03/08 01:08:13;;;;;;;20.53;13.23;;;;;;;0.53;nan;99920.78;4929617;29;20210;-73
2022/03/08 01:10:39;;;;;;;23.23;17.67;;;;;;;0.38;nan;99914.16;4929688;29;20682;-73
2022/03/08 01:13:04;;;;;;;22.37;13.83;;;;;;;0.27;nan;99917.78;4931419;29;20205;-73
2022/03/08 01:15:30;;;;;;;22.33;13.90;;;;;;;0.17;nan;99912.78;4932942;29;20469;-73
2022/03/08 01:17:56;;;;;;;24.73;15.33;;;;;;;0.04;nan;99913.84;4915481;29;20209;-73
2022/03/08 01:20:23;;;;;;;20.48;15.73;;;;;;;-0.05;nan;99914.00;4914626;29;20275;-73
2022/03/08 01:22:49;;;;;;;22.75;14.30;;;;;;;-0.09;nan;99914.91;4929151;29;20697;-73
2022/03/08 01:25:18;;;;;;;21.17;14.82;;;;;;;-0.17;nan;99906.44;4914699;29;20287;-73
2022/03/08 01:27:44;;;;;;;23.50;15.52;;;;;;;-0.25;nan;99912.56;4930229;29;20210;-73
2022/03/08 01:30:12;;;;;;;22.33;14.30;;;;;;;-0.35;nan;99920.47;4930631;29;20703;-73
2022/03/08 01:32:38;;;;;;;20.48;15.82;;;;;;;-0.46;nan;99911.16;4930083;29;20214;-74
2022/03/08 01:35:04;;;;;;;22.60;14.45;;;;;;;-0.57;nan;99912.16;4928173;29;20274;-73
2022/03/08 01:37:30;;;;;;;21.75;13.55;;;;;;;-0.68;nan;99915.72;4927194;29;20209;-73
2022/03/08 01:39:55;;;;;;;25.60;16.63;;;;;;;-0.74;nan;99926.13;4913965;29;20198;-73
2022/03/08 01:42:24;;;;;;;25.30;16.47;;;;;;;-0.76;nan;99917.56;4930465;29;20197;-73
2022/03/08 01:44:50;;;;;;;28.77;15.93;;;;;;;-0.74;nan;99915.81;4933032;29;20217;-73
2022/03/08 01:47:19;;;;;;;27.10;16.42;;;;;;;-0.71;nan;99918.34;4933584;29;20202;-73
2022/03/08 01:49:47;;;;;;;29.15;15.95;;;;;;;-0.68;nan;99910.56;4913885;29;20221;-73
2022/03/08 01:52:15;;;;;;;22.58;14.07;;;;;;;-0.64;nan;99915.72;4912099;29;20221;-73
2022/03/08 01:54:41;;;;;;;26.40;16.35;;;;;;;-0.67;nan;99912.28;4930533;29;20332;-73
2022/03/08 01:57:07;;;;;;;24.35;15.02;;;;;;;-0.77;nan;99918.44;4929248;29;20337;-73
2022/03/08 01:59:33;;;;;;;27.25;15.93;;;;;;;-0.88;nan;99902.25;4931246;29;20236;-73
2022/03/08 02:01:59;;;;;;;29.45;18.67;;;;;;;-0.90;nan;99911.72;4930585;29;20596;-73
2022/03/08 02:04:24;;;;;;;24.03;15.30;;;;;;;-0.88;nan;99907.41;4929005;29;20232;-73
2022/03/08 02:06:50;;;;;;;28.30;15.03;;;;;;;-0.85;nan;99901.34;4929372;29;20198;-73
2022/03/08 02:09:15;;;;;;;23.13;14.60;;;;;;;-0.86;nan;99902.22;4929771;29;20623;-73
2022/03/08 02:11:41;;;;;;;23.30;14.37;;;;;;;-0.86;nan;99897.94;4927403;29;20206;-73
2022/03/08 02:14:07;;;;;;;23.17;15.65;;;;;;;-0.86;nan;99900.50;4910383;29;20229;-73
2022/03/08 02:16:33;;;;;;;24.00;16.10;;;;;;;-0.87;nan;99891.06;4930199;29;20212;-73
2022/03/08 02:18:58;;;;;;;26.63;15.02;;;;;;;-0.87;nan;99895.34;4932547;29;20281;-73
2022/03/08 02:21:25;;;;;;;25.47;15.37;;;;;;;-0.88;nan;99893.66;4930849;29;20214;-73
2022/03/08 02:23:51;;;;;;;25.60;15.57;;;;;;;-0.87;nan;99903.09;4931038;29;20201;-73
2022/03/08 02:26:17;;;;;;;28.57;15.57;;;;;;;-0.91;nan;99902.28;4930236;29;20212;-73
2022/03/08 02:28:42;;;;;;;19.57;14.63;;;;;;;-0.94;nan;99907.50;4927585;29;20469;-73
2022/03/08 02:31:08;;;;;;;30.88;20.35;;;;;;;-0.97;nan;99899.78;4931727;29;20500;-73
2022/03/08 02:33:33;;;;;;;23.47;16.87;;;;;;;-1.03;nan;99902.41;4930890;29;20277;-73
2022/03/08 02:35:59;;;;;;;23.57;15.97;;;;;;;-1.06;nan;99898.16;4929447;29;20253;-73
2022/03/08 02:38:24;;;;;;;27.47;15.30;;;;;;;-1.09;nan;99889.63;4929796;29;20229;-73
2022/03/08 02:40:50;;;;;;;20.27;14.37;;;;;;;-1.15;nan;99882.81;4930332;29;20543;-74
2022/03/08 02:43:15;;;;;;;21.87;14.10;;;;;;;-1.20;nan;99888.00;4929763;29;20697;-73
2022/03/08 02:45:41;;;;;;;19.27;15.37;;;;;;;-1.20;nan;99894.88;4927840;29;20655;-74
2022/03/08 02:48:07;;;;;;;26.47;17.27;;;;;;;-1.21;nan;99896.63;4930203;29;20217;-74
2022/03/08 02:50:33;;;;;;;28.20;15.65;;;;;;;-1.24;nan;99888.03;4930406;29;20488;-74
2022/03/08 02:52:59;;;;;;;24.30;15.37;;;;;;;-1.33;nan;99899.31;4929496;29;20233;-74
2022/03/08 02:55:27;;;;;;;25.33;14.13;;;;;;;-1.39;nan;99895.09;4928787;29;20230;-74
2022/03/08 02:57:54;;;;;;;19.23;13.63;;;;;;;-1.51;nan;99891.78;4928645;29;20454;-74
2022/03/08 03:00:21;;;;;;;21.42;14.02;;;;;;;-1.52;nan;99892.66;4913787;29;20206;-74
2022/03/08 03:02:47;;;;;;;27.85;18.70;;;;;;;-1.51;nan;99890.06;4929274;29;20488;-74
2022/03/08 03:05:13;;;;;;;24.77;16.90;;;;;;;-1.55;nan;99893.53;4930484;29;20237;-74
2022/03/08 03:07:39;;;;;;;30.70;17.40;;;;;;;-1.56;nan;99881.53;4930417;29;20469;-74
2022/03/08 03:10:07;;;;;;;22.83;14.70;;;;;;;-1.56;nan;99884.97;4929924;29;20469;-73
2022/03/08 03:12:33;;;;;;;21.02;14.50;;;;;;;-1.62;nan;99890.19;4929569;29;20198;-73
2022/03/08 03:14:59;;;;;;;21.47;14.43;;;;;;;-1.68;nan;99886.78;4926081;29;20744;-73
2022/03/08 03:17:24;;;;;;;23.53;16.33;;;;;;;-1.69;nan;99900.53;4931514;29;20288;-73
2022/03/08 03:19:50;;;;;;;23.80;13.87;;;;;;;-1.72;nan;99895.44;4930232;29;20543;-73
2022/03/08 03:22:16;;;;;;;24.03;15.90;;;;;;;-1.75;nan;99893.72;4929627;29;20204;-73
2022/03/08 03:24:41;;;;;;;19.00;12.67;;;;;;;-1.76;nan;99891.16;4929789;29;20598;-73
2022/03/08 03:27:07;;;;;;;15.57;12.23;;;;;;;-1.81;nan;99911.78;4928273;29;20705;-73
2022/03/08 03:29:32;;;;;;;23.17;16.20;;;;;;;-1.83;nan;99906.66;4929329;29;20513;-73
2022/03/08 03:31:57;;;;;;;23.88;16.83;;;;;;;-1.83;nan;99909.25;4928103;29;20559;-73
2022/03/08 03:34:23;;;;;;;28.80;16.60;;;;;;;-1.91;nan;99905.88;4930321;29;20224;-73
2022/03/08 03:36:48;;;;;;;25.57;15.67;;;;;;;-2.01;nan;99907.66;4934878;29;20206;-73
2022/03/08 03:39:14;;;;;;;24.03;14.90;;;;;;;-2.12;nan;99908.63;4941843;29;20225;-73
2022/03/08 03:41:39;;;;;;;23.63;16.30;;;;;;;-2.16;nan;99905.22;4937609;29;20210;-73
2022/03/08 03:44:05;;;;;;;22.00;13.45;;;;;;;-2.18;nan;99899.22;4911717;29;20237;-73
2022/03/08 03:46:31;;;;;;;27.10;15.20;;;;;;;-2.28;nan;99898.41;4904966;29;20567;-73
2022/03/08 03:48:56;;;;;;;20.50;12.77;;;;;;;-2.33;nan;99897.59;4928654;29;20682;-73
2022/03/08 03:51:22;;;;;;;21.70;13.40;;;;;;;-2.36;nan;99891.63;4928582;29;20689;-73
2022/03/08 03:53:47;;;;;;;24.10;16.53;;;;;;;-2.35;nan;99895.91;4930820;29;20276;-73
2022/03/08 03:56:13;;;;;;;24.27;15.50;;;;;;;-2.34;nan;99895.91;4930273;29;20780;-73
2022/03/08 03:58:38;;;;;;;21.30;14.03;;;;;;;-2.34;nan;99901.03;4927639;29;20350;-73
2022/03/08 04:01:04;;;;;;;31.10;20.03;;;;;;;-2.34;nan;99916.47;4928556;29;20584;-73
2022/03/08 04:03:30;;;;;;;28.17;17.27;;;;;;;-2.36;nan;99914.78;4928774;29;20677;-74
2022/03/08 04:05:55;;;;;;;28.33;17.23;;;;;;;-2.37;nan;99907.94;4929742;29;20476;-74
2022/03/08 04:08:20;;;;;;;18.07;13.80;;;;;;;-2.36;nan;99907.06;4929606;29;20468;-74
2022/03/08 04:10:50;;;;;;;24.10;14.63;;;;;;;-2.37;nan;99903.63;4928427;29;20209;-74
2022/03/08 04:13:17;;;;;;;24.63;14.63;;;;;;;-2.43;nan;99905.38;4927306;29;20231;-74
2022/03/08 04:15:43;;;;;;;24.35;13.75;;;;;;;-2.56;nan;99896.91;4929990;29;20225;-74
2022/03/08 04:18:09;;;;;;;38.40;13.73;;;;;;;-2.60;nan;99897.78;4929099;29;20253;-73
2022/03/08 04:20:35;;;;;;;26.30;17.10;;;;;;;-2.59;nan;99900.34;4926806;29;20201;-73
2022/03/08 04:23:00;;;;;;;25.80;15.48;;;;;;;-2.54;nan;99900.31;4912242;29;20689;-73
2022/03/08 04:25:26;;;;;;;29.57;15.90;;;;;;;-2.54;nan;99898.59;4929405;29;20229;-73
2022/03/08 04:27:52;;;;;;;26.90;16.20;;;;;;;-2.52;nan;99896.84;4930214;29;20296;-73
2022/03/08 04:30:17;;;;;;;23.10;14.00;;;;;;;-2.48;nan;99903.72;4931085;29;20504;-73
2022/03/08 04:32:43;;;;;;;27.27;19.70;;;;;;;-2.49;nan;99912.25;4931998;29;20481;-73
2022/03/08 04:35:09;;;;;;;27.13;15.87;;;;;;;-2.60;nan;99916.63;4914295;29;20225;-73
2022/03/08 04:37:36;;;;;;;24.20;13.83;;;;;;;-2.69;nan;99909.81;4925759;29;20676;-73
2022/03/08 04:40:04;;;;;;;21.25;13.18;;;;;;;-2.79;nan;99902.16;4925898;29;20560;-73
2022/03/08 04:42:30;;;;;;;25.05;14.88;;;;;;;-2.91;nan;99893.63;4936323;29;20218;-73
2022/03/08 04:44:55;;;;;;;30.50;16.10;;;;;;;-2.94;nan;99901.38;4934136;29;20244;-74
2022/03/08 04:47:21;;;;;;;30.17;17.57;;;;;;;-2.92;nan;99909.06;4933234;29;20567;-74
2022/03/08 04:49:46;;;;;;;23.17;13.93;;;;;;;-2.94;nan;99910.81;4932540;29;20240;-74
2022/03/08 04:52:13;;;;;;;24.92;14.57;;;;;;;-2.94;nan;99914.22;4932445;29;20642;-74
2022/03/08 04:54:38;;;;;;;21.27;15.73;;;;;;;-2.94;nan;99909.06;4946571;23;20328;-75
2022/03/08 04:57:05;;;;;;;24.43;15.30;;;;;;;-3.01;nan;99907.38;4926503;29;20225;-72
2022/03/08 04:59:31;;;;;;;25.55;18.08;;;;;;;-3.06;nan;99914.25;4928639;29;20507;-72
2022/03/08 05:01:56;;;;;;;25.73;15.07;;;;;;;-3.08;nan;99900.53;4932081;29;20189;-72
2022/03/08 05:04:22;;;;;;;22.90;14.30;;;;;;;-3.03;nan;99906.53;4934681;29;20535;-72
2022/03/08 05:06:47;;;;;;;21.50;13.30;;;;;;;-3.03;nan;99903.09;4931191;29;20640;-72
2022/03/08 05:09:13;;;;;;;29.17;14.40;;;;;;;-3.13;nan;99902.31;4931809;29;20202;-72
2022/03/08 05:11:38;;;;;;;26.63;15.17;;;;;;;-3.20;nan;99898.03;4933189;29;20202;-72
2022/03/08 05:14:05;;;;;;;25.90;15.13;;;;;;;-3.26;nan;99900.63;4931396;29;20213;-72
2022/03/08 05:16:30;;;;;;;30.15;13.23;;;;;;;-3.33;nan;99892.91;4914952;29;20236;-72
2022/03/08 05:18:56;;;;;;;25.50;15.30;;;;;;;-3.35;nan;99897.22;4937502;29;20226;-72
2022/03/08 05:21:22;;;;;;;26.15;14.85;;;;;;;-3.28;nan;99892.06;4936689;29;20217;-72
2022/03/08 05:23:47;;;;;;;23.00;14.93;;;;;;;-3.33;nan;99898.06;4930586;29;20221;-72
2022/03/08 05:26:12;;;;;;;27.57;14.90;;;;;;;-3.37;nan;99904.06;4932950;29;20237;-72
2022/03/08 05:28:38;;;;;;;27.80;14.67;;;;;;;-3.43;nan;99898.97;4931889;29;20217;-72
2022/03/08 05:31:03;;;;;;;21.90;13.83;;;;;;;-3.47;nan;99909.22;4934147;29;20424;-73
2022/03/08 05:33:29;;;;;;;20.20;14.30;;;;;;;-3.46;nan;99910.94;4937607;29;20466;-73
2022/03/08 05:35:54;;;;;;;24.57;15.30;;;;;;;-3.46;nan;99906.66;4936186;29;20284;-73
2022/03/08 05:38:19;;;;;;;27.90;15.23;;;;;;;-3.41;nan;99910.06;4933619;29;20226;-73
2022/03/08 05:40:45;;;;;;;24.77;15.80;;;;;;;-3.36;nan;99916.03;4930475;29;20566;-73
2022/03/08 05:43:11;;;;;;;40.27;19.70;;;;;;;-3.37;nan;99901.50;4928480;29;20721;-73
2022/03/08 05:45:36;;;;;;;28.60;16.30;;;;;;;-3.39;nan;99905.78;4933047;29;20392;-73
2022/03/08 05:48:02;;;;;;;28.73;18.37;;;;;;;-3.37;nan;99905.78;4933376;29;20201;-73
2022/03/08 05:50:27;;;;;;;26.93;16.93;;;;;;;-3.35;nan;99902.38;4933033;29;20198;-73
2022/03/08 05:52:53;;;;;;;26.90;16.20;;;;;;;-3.34;nan;99904.06;4931472;29;20566;-73
2022/03/08 05:55:18;;;;;;;31.23;16.87;;;;;;;-3.33;nan;99907.47;4930270;29;20249;-73
2022/03/08 05:57:44;;;;;;;28.47;16.13;;;;;;;-3.39;nan;99895.50;4929679;29;20249;-73
2022/03/08 06:00:10;;;;;;;22.33;15.97;;;;;;;-3.48;nan;99890.41;4916148;29;20217;-73
2022/03/08 06:02:38;;;;;;;39.03;25.40;;;;;;;-3.58;nan;99887.00;4928937;29;20485;-73
2022/03/08 06:05:05;;;;;;;29.37;18.03;;;;;;;-3.60;nan;99898.13;4931016;29;20299;-73
2022/03/08 06:07:30;;;;;;;33.20;19.90;;;;;;;-3.55;nan;99896.41;4931663;29;20210;-73
2022/03/08 06:09:55;;;;;;;28.53;17.57;;;;;;;-3.49;nan;99892.97;4927913;29;20202;-73
2022/03/08 06:12:21;;;;;;;24.90;16.97;;;;;;;-3.48;nan;99895.53;4931758;29;20213;-73
2022/03/08 06:14:46;;;;;;;22.73;13.80;;;;;;;-3.46;nan;99887.81;4927489;29;20292;-73
2022/03/08 06:17:12;;;;;;;30.10;17.07;;;;;;;-3.52;nan;99882.72;4929746;29;20290;-73
2022/03/08 06:19:37;;;;;;;25.20;15.50;;;;;;;-3.63;nan;99882.72;4931344;29;20512;-73
2022/03/08 06:22:04;;;;;;;27.10;16.13;;;;;;;-3.67;nan;99883.56;4931300;29;20212;-73
2022/03/08 06:24:29;;;;;;;26.65;17.40;;;;;;;-3.66;nan;99885.31;4932642;29;20224;-73
2022/03/08 06:26:55;;;;;;;36.63;18.13;;;;;;;-3.60;nan;99886.13;4930919;29;20683;-73
2022/03/08 06:29:20;;;;;;;24.40;15.43;;;;;;;-3.55;nan;99891.28;4929950;29;20198;-73
2022/03/08 06:31:46;;;;;;;32.33;15.80;;;;;;;-3.55;nan;99888.69;4929491;29;20202;-73
2022/03/08 06:34:11;;;;;;;29.93;15.70;;;;;;;-3.56;nan;99892.13;4929710;29;20206;-72
2022/03/08 06:36:39;;;;;;;24.60;16.37;;;;;;;-3.58;nan;99899.84;4912078;29;20291;-73
2022/03/08 06:39:04;;;;;;;20.73;13.88;;;;;;;-3.58;nan;99893.84;4931301;29;20224;-73
2022/03/08 06:41:31;;;;;;;30.57;16.60;;;;;;;-3.53;nan;99901.56;4931061;29;20202;-73
2022/03/08 06:43:56;;;;;;;22.70;15.60;;;;;;;-3.47;nan;99897.25;4928599;29;20268;-73
2022/03/08 06:46:22;;;;;;;28.23;16.40;;;;;;;-3.39;nan;99915.22;4929205;29;20205;-73
2022/03/08 06:48:47;;;;;;;22.03;13.83;;;;;;;-3.33;nan;99921.16;4927818;29;20365;-73
2022/03/08 06:51:14;;;;;;;27.60;16.23;;;;;;;-3.29;nan;99921.16;4930915;29;20609;-73
2022/03/08 06:53:39;;;;;;;25.65;15.70;;;;;;;-3.24;nan;99919.44;4912126;29;20306;-73
2022/03/08 06:56:05;;;;;;;28.13;16.63;;;;;;;-3.15;nan;99925.41;4930937;29;20251;-73
2022/03/08 06:58:30;;;;;;;28.00;17.30;;;;;;;-3.05;nan;99920.25;4926177;29;20217;-73
2022/03/08 07:00:55;;;;;;;24.03;14.97;;;;;;;-2.94;nan;99928.78;4927501;29;20701;-73
2022/03/08 07:03:21;;;;;;;28.60;18.10;;;;;;;-2.81;nan;99932.16;4927970;29;20225;-73
2022/03/08 07:05:46;;;;;;;28.97;16.20;;;;;;;-2.70;nan;99941.53;4931697;29;20586;-73
2022/03/08 07:08:12;;;;;;;22.77;15.53;;;;;;;-2.59;nan;99951.78;4928266;29;20197;-73
2022/03/08 07:10:38;;;;;;;27.63;17.00;;;;;;;-2.53;nan;99946.59;4930702;29;20201;-74
2022/03/08 07:13:03;;;;;;;27.07;15.33;;;;;;;-2.46;nan;99953.44;4930286;29;20822;-73
2022/03/08 07:15:28;;;;;;;31.77;18.23;;;;;;;-2.37;nan;99956.81;4927642;29;20277;-73
2022/03/08 07:17:54;;;;;;;28.97;18.07;;;;;;;-2.29;nan;99955.91;4929734;29;20212;-73
2022/03/08 07:20:19;;;;;;;26.20;17.73;;;;;;;-2.24;nan;99959.31;4929646;29;20226;-73
2022/03/08 07:22:46;;;;;;;31.67;17.60;;;;;;;-2.16;nan;99955.81;4925075;29;20233;-73
2022/03/08 07:25:13;;;;;;;28.60;16.67;;;;;;;-2.09;nan;99958.34;4929784;29;20377;-74
2022/03/08 07:27:38;;;;;;;30.98;17.80;;;;;;;-2.01;nan;99959.13;4930260;29;20273;-74
2022/03/08 07:30:06;;;;;;;32.57;17.40;;;;;;;-1.90;nan;99958.22;4928460;29;20197;-74
2022/03/08 07:32:32;;;;;;;36.88;24.02;;;;;;;-1.79;nan;99967.56;4927691;29;20495;-74
2022/03/08 07:34:57;;;;;;;29.73;19.87;;;;;;;-1.72;nan;99958.06;4929212;29;21155;-75
2022/03/08 07:37:23;;;;;;;28.67;17.40;;;;;;;-1.66;nan;99962.31;4928346;29;20273;-74
2022/03/08 07:39:49;;;;;;;34.87;18.90;;;;;;;-1.62;nan;99964.88;4928832;29;20229;-74
2022/03/08 07:42:14;;;;;;;29.57;16.90;;;;;;;-1.55;nan;99960.50;4929017;29;20810;-75
2022/03/08 07:44:41;;;;;;;26.67;15.50;;;;;;;-1.49;nan;99969.91;4924419;29;20202;-74
2022/03/08 07:47:08;;;;;;;27.70;16.07;;;;;;;-1.47;nan;99963.88;4930881;29;20635;-74
2022/03/08 07:49:34;;;;;;;27.70;16.98;;;;;;;-1.43;nan;99965.56;4924520;29;20201;-74
2022/03/08 07:52:00;;;;;;;24.95;16.23;;;;;;;-1.39;nan;99956.06;4926327;29;20198;-74
2022/03/08 07:54:26;;;;;;;23.90;14.10;;;;;;;-1.28;nan;99963.69;4928021;29;20552;-74
2022/03/08 07:56:51;;;;;;;24.63;14.73;;;;;;;-1.19;nan;99967.06;4929320;29;20245;-75
2022/03/08 07:59:17;;;;;;;26.73;16.50;;;;;;;-1.09;nan;99967.78;4930434;29;20473;-74
2022/03/08 08:01:43;;;;;;;31.40;16.47;;;;;;;-1.03;nan;99962.56;4904128;29;20636;-75
2022/03/08 08:04:08;;;;;;;32.13;18.57;;;;;;;-0.95;nan;99967.66;4928836;29;20206;-75
2022/03/08 08:06:34;;;;;;;26.67;15.43;;;;;;;-0.86;nan;99975.28;4931986;29;20233;-75
2022/03/08 08:08:59;;;;;;;24.97;18.37;;;;;;;-0.78;nan;99976.06;4928276;29;20212;-75
2022/03/08 08:11:24;;;;;;;24.20;15.80;;;;;;;-0.74;nan;99974.28;4929397;29;20353;-75
2022/03/08 08:13:50;;;;;;;26.50;16.10;;;;;;;-0.71;nan;99975.09;4927155;29;20221;-75
2022/03/08 08:16:18;;;;;;;26.05;16.48;;;;;;;-0.66;nan;99972.47;4930114;29;20313;-75
2022/03/08 08:18:43;;;;;;;23.35;15.57;;;;;;;-0.56;nan;99970.66;4929114;29;20240;-75
2022/03/08 08:21:09;;;;;;;33.37;19.00;;;;;;;-0.28;nan;99965.97;4930270;29;20205;-75
2022/03/08 08:23:35;;;;;;;28.65;19.60;;;;;;;0.31;nan;99959.06;4925605;29;20209;-75
2022/03/08 08:26:00;;;;;;;30.27;19.80;;;;;;;1.19;nan;99967.81;4929054;29;20598;-75
2022/03/08 08:28:26;;;;;;;23.60;15.73;;;;;;;2.17;nan;99957.97;4929487;29;20209;-75
2022/03/08 08:30:51;;;;;;;29.30;17.50;;;;;;;2.89;nan;99953.56;4928182;29;20697;-75
2022/03/08 08:33:17;;;;;;;25.73;16.60;;;;;;;3.63;nan;99952.34;4928404;29;20205;-75
2022/03/08 08:35:42;;;;;;;29.33;17.17;;;;;;;4.47;nan;99956.63;4925056;29;20607;-76
2022/03/08 08:38:08;;;;;;;24.77;15.80;;;;;;;5.09;nan;99950.19;4925612;29;20213;-76
2022/03/08 08:40:36;;;;;;;23.40;17.00;;;;;;;5.67;nan;99936.75;4927185;29;20304;-75
2022/03/08 08:43:05;;;;;;;24.45;16.90;;;;;;;6.35;nan;99928.00;4927351;29;20214;-75
2022/03/08 08:45:31;;;;;;;27.63;20.30;;;;;;;6.95;nan;99922.00;4927481;29;20256;-76
2022/03/08 08:47:57;;;;;;;25.88;17.50;;;;;;;7.21;nan;99916.47;4928084;29;20201;-76
2022/03/08 08:50:23;;;;;;;19.55;17.35;;;;;;;7.30;nan;99921.28;4929322;29;20201;-76
2022/03/08 08:52:49;;;;;;;27.45;18.35;;;;;;;7.52;nan;99917.69;4927396;29;20209;-76
2022/03/08 08:55:14;;;;;;;24.43;18.37;;;;;;;7.74;nan;99921.00;4928248;29;20245;-76
2022/03/08 08:57:40;;;;;;;26.20;17.00;;;;;;;7.85;nan;99919.66;4929160;29;20657;-76
2022/03/08 09:00:07;;;;;;;27.00;19.27;;;;;;;8.15;nan;99910.31;4929000;29;20210;-76
2022/03/08 09:02:32;;;;;;;28.70;21.70;;;;;;;8.69;nan;99904.22;4926362;29;20573;-76
2022/03/08 09:04:58;;;;;;;27.40;22.07;;;;;;;8.88;nan;99902.34;4928803;29;20831;-75
2022/03/08 09:07:23;;;;;;;21.40;18.33;;;;;;;8.73;nan;99901.38;4925602;29;20252;-75
2022/03/08 09:09:49;;;;;;;22.93;18.97;;;;;;;8.50;nan;99893.81;4927000;29;20197;-76
2022/03/08 09:12:15;;;;;;;22.87;17.20;;;;;;;8.47;nan;99897.44;4907469;29;20948;-75
2022/03/08 09:14:40;;;;;;;21.53;17.17;;;;;;;8.68;nan;99899.91;4924339;29;20257;-76
2022/03/08 09:17:06;;;;;;;32.80;19.43;;;;;;;8.97;nan;99895.78;4928516;29;20488;-76
2022/03/08 09:19:31;;;;;;;29.00;21.00;;;;;;;9.05;nan;99891.84;4915701;29;20695;-76
2022/03/08 09:21:57;;;;;;;23.57;18.93;;;;;;;9.28;nan;99893.22;4927716;29;20206;-76
2022/03/08 09:24:22;;;;;;;23.70;16.83;;;;;;;9.26;nan;99891.59;4928430;29;20579;-76
2022/03/08 09:26:47;;;;;;;23.20;17.40;;;;;;;9.06;nan;99893.53;4929030;29;20233;-76
2022/03/08 09:29:13;;;;;;;31.20;20.93;;;;;;;9.01;nan;99889.44;4934133;29;20245;-77
2022/03/08 09:31:38;;;;;;;27.23;20.10;;;;;;;9.12;nan;99886.25;4929417;29;20734;-78
2022/03/08 09:34:04;;;;;;;26.57;20.47;;;;;;;9.15;nan;99891.34;4931493;29;20277;-75
2022/03/08 09:36:29;;;;;;;29.60;20.43;;;;;;;9.05;nan;99889.22;4931304;29;20237;-76
2022/03/08 09:38:55;;;;;;;22.57;17.87;;;;;;;8.26;nan;99890.63;4931589;29;20272;-76
2022/03/08 09:41:21;;;;;;;24.23;17.37;;;;;;;7.60;nan;99883.38;4929915;29;20229;-75
2022/03/08 09:43:47;;;;;;;25.20;18.33;;;;;;;7.12;nan;99888.16;4914205;29;20264;-75
2022/03/08 09:46:12;;;;;;;28.40;18.70;;;;;;;6.93;nan;99882.88;4933495;29;20233;-75
2022/03/08 09:48:38;;;;;;;29.27;18.77;;;;;;;6.63;nan;99882.47;4931682;29;20198;-75
2022/03/08 09:51:04;;;;;;;30.97;18.57;;;;;;;6.24;nan;99874.56;4928892;29;20221;-75
2022/03/08 09:53:31;;;;;;;24.83;17.90;;;;;;;5.80;nan;99880.63;4928944;29;20210;-75
2022/03/08 09:55:58;;;;;;;24.27;17.45;;;;;;;5.83;nan;99870.06;4932837;29;20241;-75
2022/03/08 09:58:24;;;;;;;23.65;16.10;;;;;;;5.73;nan;99872.22;4935318;29;20194;-75
2022/03/08 10:00:51;;;;;;;20.07;16.87;;;;;;;5.77;nan;99863.34;4914171;29;20220;-75
2022/03/08 10:03:17;;;;;;;26.17;17.98;;;;;;;5.82;nan;99865.78;4926780;29;20341;-75
2022/03/08 10:05:43;;;;;;;21.90;15.80;;;;;;;5.94;nan;99870.56;4926143;29;20308;-75
2022/03/08 10:08:13;;;;;;;27.52;19.40;;;;;;;6.08;nan;99872.59;4926270;29;20227;-76
2022/03/08 10:10:59;;;;;;;21.77;16.20;;;;;;;5.88;nan;99881.16;4926350;29;20247;-74
2022/03/08 10:13:29;;;;;;;24.13;17.42;;;;;;;5.84;nan;99871.78;4927157;29;20308;-76
2022/03/08 10:16:13;;;;;;;26.05;18.42;;;;;;;6.04;nan;99864.94;4927632;29;20229;-75
2022/03/08 10:18:47;;;;;;;19.85;16.25;;;;;;;5.98;nan;99863.44;4925719;29;20472;-75
2022/03/08 10:21:33;;;;;;;28.80;17.35;;;;;;;5.98;nan;99879.09;4912382;29;20232;-76
2022/03/08 10:24:03;;;;;;;22.65;16.42;;;;;;;6.06;nan;99863.97;4924824;29;20209;-76
2022/03/08 10:26:32;;;;;;;25.42;18.75;;;;;;;6.24;nan;99871.94;4925971;29;20221;-75
2022/03/08 10:28:59;;;;;;;29.92;19.33;;;;;;;5.95;nan;99877.47;4923835;29;21112;-74
2022/03/08 10:31:24;;;;;;;28.15;18.40;;;;;;;5.80;nan;99872.81;4925088;29;20205;-75
2022/03/08 10:33:50;;;;;;;22.07;16.10;;;;;;;5.73;nan;99867.00;4926129;29;20257;-75
2022/03/08 10:36:22;;;;;;;24.02;17.55;;;;;;;5.67;nan;99874.19;4909039;29;20232;-74
2022/03/08 10:39:09;;;;;;;28.52;17.48;;;;;;;5.75;nan;99872.16;4924069;29;20221;-74
2022/03/08 10:42:01;;;;;;;29.80;17.65;;;;;;;5.93;nan;99878.38;4925725;29;20304;-74
2022/03/08 10:44:34;;;;;;;25.35;15.50;;;;;;;6.11;nan;99871.63;4920576;29;20244;-74
2022/03/08 10:47:01;;;;;;;21.13;15.40;;;;;;;6.17;nan;99867.00;4926633;29;20202;-74
2022/03/08 10:49:26;;;;;;;24.70;17.23;;;;;;;6.11;nan;99876.84;4925353;29;20261;-75
2022/03/08 10:52:00;;;;;;;23.63;16.13;;;;;;;6.14;nan;99874.94;4927541;29;20670;-75
2022/03/08 10:54:26;;;;;;;27.13;18.30;;;;;;;6.25;nan;99873.66;4924169;29;20219;-75
2022/03/08 10:56:51;;;;;;;26.97;18.10;;;;;;;6.32;nan;99873.34;4943186;23;20268;-76
2022/03/08 10:59:18;;;;;;;28.00;16.33;;;;;;;6.35;nan;99870.59;4920260;29;20243;-75
2022/03/08 11:01:43;;;;;;;25.70;18.65;;;;;;;6.33;nan;99871.56;4925503;29;20580;-77
2022/03/08 11:04:18;;;;;;;28.03;18.73;;;;;;;6.36;nan;99872.28;4908936;29;20296;-76
2022/03/08 11:06:45;;;;;;;24.13;18.40;;;;;;;6.37;nan;99871.41;4925457;29;20448;-76
2022/03/08 11:09:11;;;;;;;23.50;16.90;;;;;;;6.48;nan;99865.72;4924259;29;20729;-76
2022/03/08 11:11:37;;;;;;;25.97;17.80;;;;;;;6.56;nan;99867.97;4922866;29;20354;-76
2022/03/08 11:14:03;;;;;;;26.17;19.10;;;;;;;6.58;nan;99871.38;4925792;29;20217;-76
2022/03/08 11:16:31;;;;;;;24.90;18.17;;;;;;;6.62;nan;99863.34;4924999;29;20248;-76
2022/03/08 11:18:57;;;;;;;27.27;19.20;;;;;;;6.65;nan;99857.16;4925153;29;20648;-77
2022/03/08 11:21:23;;;;;;;23.25;17.30;;;;;;;6.61;nan;99856.41;4909904;29;20242;-76
2022/03/08 11:23:51;;;;;;;25.58;18.17;;;;;;;6.54;nan;99854.16;4925069;29;20209;-77
2022/03/08 11:26:17;;;;;;;28.95;21.45;;;;;;;6.47;nan;99853.56;4925764;29;20229;-77
2022/03/08 11:28:45;;;;;;;30.03;18.70;;;;;;;6.54;nan;99848.94;4923762;29;20210;-76
2022/03/08 11:31:12;;;;;;;28.42;17.90;;;;;;;6.52;nan;99850.78;4924370;29;20448;-75